Bearcat — WV8240 — position and weather

sailwx.info

Track history (hours):
 
Tides and Currents Weather Stations Pressure Air Temp Water Temp Dewpoint Dewpoint Depression Visibility Wind Speed Wind Dir Waves Ship Positions

Bearcat

Owner: WESTAR MARINE SERVICE, SAN FRANCISCO, CA. More information available from US FCC via Universal Licensing System and Coast Guard Vessel Documentation Center.

Last reported at 2018-Feb-12 09:10 UTC. Time now 2018-Feb-18 23:49 UTC.
Position N 47°34' W 122°21'.

Type: Ship. MMSI: 366969780.

Date/timePositionNaut miles runAvg speedWind from/ knotsBaromVisibWave heightAir tempDewpointWater temp
2018-Feb-12 09:10N 47°34' W 122°21'1 6.0
2018-Feb-12 09:00N 47°35' W 122°22'1 1.6
2018-Feb-12 08:29N 47°36' W 122°22'1 1.3
2018-Feb-12 08:00N 47°36' W 122°23'4 8.6
2018-Feb-12 07:30N 47°39' W 122°27'5 9.7
2018-Feb-12 07:00N 47°44' W 122°27'5 9.7
2018-Feb-12 06:30N 47°49' W 122°28'4 8.5
2018-Feb-12 06:00N 47°53' W 122°30'5 8.7
2018-Feb-12 05:28N 47°57' W 122°34'24 6.7
2018-Feb-12 01:54N 48°19' W 122°47'4 9.2
2018-Feb-12 01:30N 48°23' W 122°46'510.4
2018-Feb-12 01:00N 48°28' W 122°44'5 9.3
2018-Feb-12 00:30N 48°31' W 122°40'3 6.8
2018-Feb-12 00:00N 48°31' W 122°35'0 0.8
2018-Feb-11 23:30N 48°31' W 122°34'0 0.0
2018-Feb-11 23:00N 48°31' W 122°34'0 0.1
2018-Feb-11 22:30N 48°31' W 122°34'0 0.0
2018-Feb-11 22:00N 48°31' W 122°34'0 0.0
2018-Feb-11 21:30N 48°31' W 122°34'0 0.0
2018-Feb-11 21:00N 48°31' W 122°34'0 0.0
2018-Feb-11 20:30N 48°31' W 122°34'0 0.1
2018-Feb-11 20:00N 48°31' W 122°34'0 0.1
2018-Feb-11 19:30N 48°31' W 122°34'0 0.0
2018-Feb-11 19:00N 48°31' W 122°34'0 0.1
2018-Feb-11 18:30N 48°31' W 122°34'0 0.1
2018-Feb-11 18:00N 48°31' W 122°34'0 0.0
2018-Feb-11 17:30N 48°31' W 122°34'0 0.1
2018-Feb-11 17:00N 48°31' W 122°34'0 0.1
2018-Feb-11 16:30N 48°31' W 122°34'0 0.1
2018-Feb-11 16:00N 48°31' W 122°34'0 0.0
2018-Feb-11 15:30N 48°31' W 122°34'0 0.0
2018-Feb-11 15:00N 48°31' W 122°34'1 1.7
2018-Feb-11 14:30N 48°31' W 122°35'1 2.3
2018-Feb-11 14:00N 48°31' W 122°37'1 2.5
2018-Feb-11 13:30N 48°31' W 122°39'2 4.6
2018-Feb-11 13:00N 48°31' W 122°42'2 3.4
2018-Feb-11 12:30N 48°29' W 122°43'3 4.9
2018-Feb-11 12:00N 48°27' W 122°44'3 5.1
2018-Feb-11 11:30N 48°24' W 122°44'26 4.8
2018-Feb-11 06:09N 47°59' W 122°35'1 6.0
2018-Feb-11 05:59N 47°58' W 122°35'3 6.1
2018-Feb-11 05:30N 47°57' W 122°31'3 6.3
2018-Feb-11 05:00N 47°54' W 122°28'4 7.1
2018-Feb-11 04:30N 47°51' W 122°27'3 6.8
2018-Feb-11 04:00N 47°47' W 122°26'3 6.7
2018-Feb-11 03:30N 47°44' W 122°26'3 6.7
2018-Feb-11 03:00N 47°41' W 122°27'3 6.1
2018-Feb-11 02:29N 47°38' W 122°26'3 7.1
2018-Feb-11 02:00N 47°36' W 122°21'1 1.0
2018-Feb-11 01:29N 47°35' W 122°21'  
2018-Feb-06 07:59N 47°45' W 122°27'4 7.4
2018-Feb-06 07:30N 47°49' W 122°28'3 6.7
2018-Feb-06 07:00N 47°52' W 122°29'3 5.8
2018-Feb-06 06:30N 47°55' W 122°31'39 2.3
2018-Feb-05 13:49N 48°08' W 123°26'1 1.4
2018-Feb-05 13:00N 48°08' W 123°24'2 3.8
2018-Feb-05 12:30N 48°08' W 123°21'3 3.1
2018-Feb-05 11:29N 48°09' W 123°17'2 3.1
2018-Feb-05 10:59N 48°10' W 123°15'2 3.8
2018-Feb-05 10:27N 48°11' W 123°12'2 4.2
2018-Feb-05 10:00N 48°12' W 123°10'2 4.5
2018-Feb-05 09:29N 48°13' W 123°07'2 4.3
2018-Feb-05 08:57N 48°13' W 123°03'3 5.0
2018-Feb-05 08:25N 48°13' W 122°59'21 5.5
2018-Feb-05 04:38N 47°59' W 122°35'2 7.2
2018-Feb-05 04:24N 47°58' W 122°34'3 6.7
2018-Feb-05 04:00N 47°57' W 122°31'3 5.9
2018-Feb-05 03:30N 47°54' W 122°28'3 6.4
2018-Feb-05 03:00N 47°51' W 122°27'3 5.7
2018-Feb-05 02:30N 47°48' W 122°26'3 5.9
2018-Feb-05 02:01N 47°45' W 122°25'3 5.9
2018-Feb-05 01:31N 47°42' W 122°26'3 5.7
2018-Feb-05 01:00N 47°39' W 122°27'3 6.3
2018-Feb-05 00:30N 47°37' W 122°24'3 4.9
2018-Feb-04 23:58N 47°35' W 122°21'1 1.6
2018-Feb-04 23:29N 47°35' W 122°22'1 1.0
2018-Feb-04 22:49N 47°34' W 122°21'1 0.0
2018-Feb-02 19:43N 47°35' W 122°22'1 0.7
2018-Feb-02 18:38N 47°35' W 122°21'0 0.8
2018-Feb-02 18:28N 47°35' W 122°21'1 1.0
2018-Feb-02 17:58N 47°35' W 122°21'0 0.0
2018-Feb-02 17:29N 47°35' W 122°21'0 0.0
2018-Feb-02 16:58N 47°35' W 122°21'0 0.1
2018-Feb-02 16:23N 47°35' W 122°22'0 0.0
2018-Feb-02 15:29N 47°35' W 122°22'0 0.0
2018-Feb-02 14:24N 47°35' W 122°21'0 0.1
2018-Feb-02 13:53N 47°35' W 122°22'0 0.1
2018-Feb-02 13:30N 47°35' W 122°22'0 0.9
2018-Feb-02 12:58N 47°35' W 122°21'  
Track history (hours):
 
Tides and Currents Weather Stations Pressure Air Temp Water Temp Dewpoint Dewpoint Depression Visibility Wind Speed Wind Dir Waves Ship Positions

Bearcat

Owner: WESTAR MARINE SERVICE, SAN FRANCISCO, CA. More information available from US FCC via Universal Licensing System and Coast Guard Vessel Documentation Center.

Last reported at 2018-Feb-12 09:10 UTC. Time now 2018-Feb-18 23:49 UTC.
Position N 47°34' W 122°21'.

Type: Ship. MMSI: 366969780.

Date/timePositionNaut miles runAvg speedWind from/ knotsBaromVisibWave heightAir tempDewpointWater temp
2018-Feb-12 09:10N 47°34' W 122°21'1 6.0
2018-Feb-12 09:00N 47°35' W 122°22'1 1.6
2018-Feb-12 08:29N 47°36' W 122°22'1 1.3
2018-Feb-12 08:00N 47°36' W 122°23'4 8.6
2018-Feb-12 07:30N 47°39' W 122°27'5 9.7
2018-Feb-12 07:00N 47°44' W 122°27'5 9.7
2018-Feb-12 06:30N 47°49' W 122°28'4 8.5
2018-Feb-12 06:00N 47°53' W 122°30'5 8.7
2018-Feb-12 05:28N 47°57' W 122°34'24 6.7
2018-Feb-12 01:54N 48°19' W 122°47'4 9.2
2018-Feb-12 01:30N 48°23' W 122°46'510.4
2018-Feb-12 01:00N 48°28' W 122°44'5 9.3
2018-Feb-12 00:30N 48°31' W 122°40'3 6.8
2018-Feb-12 00:00N 48°31' W 122°35'0 0.8
2018-Feb-11 23:30N 48°31' W 122°34'0 0.0
2018-Feb-11 23:00N 48°31' W 122°34'0 0.1
2018-Feb-11 22:30N 48°31' W 122°34'0 0.0
2018-Feb-11 22:00N 48°31' W 122°34'0 0.0
2018-Feb-11 21:30N 48°31' W 122°34'0 0.0
2018-Feb-11 21:00N 48°31' W 122°34'0 0.0
2018-Feb-11 20:30N 48°31' W 122°34'0 0.1
2018-Feb-11 20:00N 48°31' W 122°34'0 0.1
2018-Feb-11 19:30N 48°31' W 122°34'0 0.0
2018-Feb-11 19:00N 48°31' W 122°34'0 0.1
2018-Feb-11 18:30N 48°31' W 122°34'0 0.1
2018-Feb-11 18:00N 48°31' W 122°34'0 0.0
2018-Feb-11 17:30N 48°31' W 122°34'0 0.1
2018-Feb-11 17:00N 48°31' W 122°34'0 0.1
2018-Feb-11 16:30N 48°31' W 122°34'0 0.1
2018-Feb-11 16:00N 48°31' W 122°34'0 0.0
2018-Feb-11 15:30N 48°31' W 122°34'0 0.0
2018-Feb-11 15:00N 48°31' W 122°34'1 1.7
2018-Feb-11 14:30N 48°31' W 122°35'1 2.3
2018-Feb-11 14:00N 48°31' W 122°37'1 2.5
2018-Feb-11 13:30N 48°31' W 122°39'2 4.6
2018-Feb-11 13:00N 48°31' W 122°42'2 3.4
2018-Feb-11 12:30N 48°29' W 122°43'3 4.9
2018-Feb-11 12:00N 48°27' W 122°44'3 5.1
2018-Feb-11 11:30N 48°24' W 122°44'26 4.8
2018-Feb-11 06:09N 47°59' W 122°35'1 6.0
2018-Feb-11 05:59N 47°58' W 122°35'3 6.1
2018-Feb-11 05:30N 47°57' W 122°31'3 6.3
2018-Feb-11 05:00N 47°54' W 122°28'4 7.1
2018-Feb-11 04:30N 47°51' W 122°27'3 6.8
2018-Feb-11 04:00N 47°47' W 122°26'3 6.7
2018-Feb-11 03:30N 47°44' W 122°26'3 6.7
2018-Feb-11 03:00N 47°41' W 122°27'3 6.1
2018-Feb-11 02:29N 47°38' W 122°26'3 7.1
2018-Feb-11 02:00N 47°36' W 122°21'1 1.0
2018-Feb-11 01:29N 47°35' W 122°21'  
2018-Feb-06 07:59N 47°45' W 122°27'4 7.4
2018-Feb-06 07:30N 47°49' W 122°28'3 6.7
2018-Feb-06 07:00N 47°52' W 122°29'3 5.8
2018-Feb-06 06:30N 47°55' W 122°31'39 2.3
2018-Feb-05 13:49N 48°08' W 123°26'1 1.4
2018-Feb-05 13:00N 48°08' W 123°24'2 3.8
2018-Feb-05 12:30N 48°08' W 123°21'3 3.1
2018-Feb-05 11:29N 48°09' W 123°17'2 3.1
2018-Feb-05 10:59N 48°10' W 123°15'2 3.8
2018-Feb-05 10:27N 48°11' W 123°12'2 4.2
2018-Feb-05 10:00N 48°12' W 123°10'2 4.5
2018-Feb-05 09:29N 48°13' W 123°07'2 4.3
2018-Feb-05 08:57N 48°13' W 123°03'3 5.0
2018-Feb-05 08:25N 48°13' W 122°59'21 5.5
2018-Feb-05 04:38N 47°59' W 122°35'2 7.2
2018-Feb-05 04:24N 47°58' W 122°34'3 6.7
2018-Feb-05 04:00N 47°57' W 122°31'3 5.9
2018-Feb-05 03:30N 47°54' W 122°28'3 6.4
2018-Feb-05 03:00N 47°51' W 122°27'3 5.7
2018-Feb-05 02:30N 47°48' W 122°26'3 5.9
2018-Feb-05 02:01N 47°45' W 122°25'3 5.9
2018-Feb-05 01:31N 47°42' W 122°26'3 5.7
2018-Feb-05 01:00N 47°39' W 122°27'3 6.3
2018-Feb-05 00:30N 47°37' W 122°24'3 4.9
2018-Feb-04 23:58N 47°35' W 122°21'1 1.6
2018-Feb-04 23:29N 47°35' W 122°22'1 1.0
2018-Feb-04 22:49N 47°34' W 122°21'1 0.0
2018-Feb-02 19:43N 47°35' W 122°22'1 0.7
2018-Feb-02 18:38N 47°35' W 122°21'0 0.8
2018-Feb-02 18:28N 47°35' W 122°21'1 1.0
2018-Feb-02 17:58N 47°35' W 122°21'0 0.0
2018-Feb-02 17:29N 47°35' W 122°21'0 0.0
2018-Feb-02 16:58N 47°35' W 122°21'0 0.1
2018-Feb-02 16:23N 47°35' W 122°22'0 0.0
2018-Feb-02 15:29N 47°35' W 122°22'0 0.0
2018-Feb-02 14:24N 47°35' W 122°21'0 0.1
2018-Feb-02 13:53N 47°35' W 122°22'0 0.1
2018-Feb-02 13:30N 47°35' W 122°22'0 0.9
2018-Feb-02 12:58N 47°35' W 122°21'  

Dump ship's entire track history